Time;durP1;ratioP1;P1;durP2;ratioP2;P2;SDS_P1;SDS_P2;PMS_P1;PMS_P2;Temp;Humidity;BMP_temperature;BMP_pressure;BME280_temperature;BME280_humidity;BME280_pressure;Samples;Min_cycle;Max_cycle;Signal;HPM_P1;HPM_P2
2021/05/30 00:00:08;;;;;;;1999.90;999.90;;;15.60;99.90;;;;;;5074895;28;20165;-84
2021/05/30 00:09:22;;;;;;;1999.90;999.90;;;15.40;99.90;;;;;;5075319;28;20481;-82
2021/05/30 00:27:10;;;;;;;1999.90;999.90;;;15.20;99.90;;;;;;4879970;29;20961;-82
2021/05/30 00:52:33;;;;;;;1999.90;999.90;;;14.90;32.20;;;;;;4897746;29;20426;-82
2021/05/30 01:09:35;;;;;;;1999.90;999.90;;;14.70;50.40;;;;;;4977493;28;20429;-81
2021/05/30 01:35:21;;;;;;;;;;;;;;;;;;;;;
2021/05/30 01:39:32;;;;;;;;;;;;;;;;;;;;;
2021/05/30 01:45:03;;;;;;;1999.90;999.90;;;14.20;99.90;;;;;;5079111;28;20413;-81
2021/05/30 01:51:26;;;;;;;;;;;;;;;;;;;;;
2021/05/30 02:06:04;;;;;;;;;;;;;;;;;;;;;
2021/05/30 02:09:21;;;;;;;1999.90;999.90;;;14.00;99.90;;;;;;4943729;28;20448;-81
2021/05/30 02:16:05;;;;;;;;;;;;;;;;;;;;;
2021/05/30 02:33:06;;;;;;;1999.90;999.90;;;13.70;1.00;;;;;;4996610;28;20374;-81
2021/05/30 02:36:28;;;;;;;;;;;;;;;;;;;;;
2021/05/30 02:49:47;;;;;;;1999.90;999.90;;;13.50;43.30;;;;;;5015596;28;20427;-81
2021/05/30 02:56:51;;;;;;;1999.90;999.90;;;13.40;9.10;;;;;;4974799;28;20442;-81
2021/05/30 03:00:09;;;;;;;;;;;;;;;;;;;;;
2021/05/30 03:07:28;;;;;;;1999.90;999.90;;;13.30;38.80;;;;;;4957004;29;21101;-83
2021/05/30 03:10:55;;;;;;;1999.90;999.90;;;13.30;86.40;;;;;;4898535;29;20513;-83
2021/05/30 03:20:50;;;;;;;;;;;;;;;;;;;;;
2021/05/30 03:31:03;;;;;;;1999.90;999.90;;;13.10;78.90;;;;;;5003746;28;20218;-83
2021/05/30 03:34:16;;;;;;;1999.90;999.90;;;13.00;99.90;;;;;;4997362;28;20413;-83
2021/05/30 03:41:30;;;;;;;;;;;;;;;;;;;;;
2021/05/30 03:44:53;;;;;;;;;;;;;;;;;;;;;
2021/05/30 03:47:23;;;;;;;1999.90;999.90;;;12.90;45.10;;;;;;4936143;29;20392;-81
2021/05/30 03:53:39;;;;;;;1999.90;999.90;;;12.80;44.70;;;;;;4954988;29;20490;-83
2021/05/30 04:00:38;;;;;;;1999.90;999.90;;;12.80;56.70;;;;;;4943946;28;20488;-81
2021/05/30 04:11:07;;;;;;;1999.90;999.90;;;12.70;53.60;;;;;;5060842;22;20239;-83
2021/05/30 04:22:09;;;;;;;1999.90;999.90;;;12.70;28.00;;;;;;5024624;28;20411;-82
2021/05/30 04:25:19;;;;;;;1999.90;999.90;;;12.70;37.20;;;;;;4955329;29;20311;-81
2021/05/30 04:28:31;;;;;;;1999.90;999.90;;;12.70;15.70;;;;;;4949990;29;20439;-81
2021/05/30 04:31:46;;;;;;;1999.90;999.90;;;12.70;28.00;;;;;;4938969;29;20176;-81
2021/05/30 04:45:50;;;;;;;;;;;;;;;;;;;;;
2021/05/30 04:48:16;;;;;;;1999.90;999.90;;;13.20;1.00;;;;;;5021795;28;20199;-81
2021/05/30 04:54:18;;;;;;;1999.90;999.90;;;13.50;1.00;;;;;;5038953;28;20375;-81
2021/05/30 04:57:41;;;;;;;1999.90;999.90;;;13.70;35.90;;;;;;5021946;28;20418;-80
2021/05/30 05:03:51;;;;;;;1999.90;999.90;;;13.80;99.90;;;;;;4990460;28;20401;-81
2021/05/30 05:07:40;;;;;;;;;;;;;;;;;;;;;
2021/05/30 05:10:44;;;;;;;1999.90;999.90;;;13.80;99.90;;;;;;4977372;28;20422;-81
2021/05/30 05:13:47;;;;;;;1999.90;999.90;;;13.80;99.90;;;;;;4970277;28;20976;-81
2021/05/30 05:16:52;;;;;;;1999.90;999.90;;;13.90;99.90;;;;;;4997925;28;20396;-81
2021/05/30 05:29:36;;;;;;;1999.90;999.90;;;13.90;99.90;;;;;;5037165;28;20433;-81
2021/05/30 05:38:57;;;;;;;1999.90;999.90;;;13.60;99.90;;;;;;5053988;28;20503;-80
2021/05/30 05:41:53;;;;;;;;;;;;;;;;;;;;;
2021/05/30 05:45:03;;;;;;;1999.90;999.90;;;13.40;99.90;;;;;;5077506;28;20938;-81
2021/05/30 05:50:25;;;;;;;1999.90;999.90;;;13.50;99.90;;;;;;5099447;22;20489;-81
2021/05/30 06:03:47;;;;;;;1999.90;999.90;;;13.40;99.90;;;;;;5077595;28;20421;-81
2021/05/30 06:07:04;;;;;;;1999.90;999.90;;;13.50;99.90;;;;;;5077297;28;20472;-81
2021/05/30 06:09:59;;;;;;;1999.90;999.90;;;13.50;99.90;;;;;;5070188;28;20936;-81
2021/05/30 06:13:21;;;;;;;1999.90;999.90;;;13.50;99.90;;;;;;5077162;28;20422;-81
2021/05/30 06:16:33;;;;;;;1999.90;999.90;;;13.60;99.90;;;;;;5038603;28;20423;-81
2021/05/30 06:25:38;;;;;;;1999.90;999.90;;;13.60;99.90;;;;;;5015792;28;20404;-81
2021/05/30 06:29:06;;;;;;;;;;;;;;;;;;;;;
2021/05/30 06:31:55;;;;;;;1999.90;999.90;;;13.70;99.90;;;;;;5069952;28;21020;-81
2021/05/30 06:34:56;;;;;;;;;;;;;;;;;;;;;
2021/05/30 06:37:56;;;;;;;1999.90;999.90;;;13.80;99.90;;;;;;5077594;28;20501;-81
2021/05/30 06:40:48;;;;;;;1999.90;999.90;;;13.80;99.90;;;;;;5076624;28;20469;-81
2021/05/30 06:43:32;;;;;;;;;;;;;;;;;;;;;
2021/05/30 06:49:33;;;;;;;1999.90;999.90;;;13.80;99.90;;;;;;5048618;28;20414;-81
2021/05/30 06:52:11;;;;;;;1999.90;999.90;;;14.00;99.90;;;;;;5075961;28;20483;-81
2021/05/30 06:54:57;;;;;;;1999.90;999.90;;;14.00;99.90;;;;;;5076267;28;20410;-82
2021/05/30 06:57:23;;;;;;;1999.90;999.90;;;13.90;99.90;;;;;;5069730;28;20445;-81
2021/05/30 07:00:02;;;;;;;1999.90;999.90;;;13.90;99.90;;;;;;5074441;28;20493;-82
2021/05/30 07:02:33;;;;;;;1999.90;999.90;;;13.90;99.90;;;;;;5076952;28;20462;-80
2021/05/30 07:05:51;;;;;;;1999.90;999.90;;;14.00;99.90;;;;;;5075507;28;20399;-81
2021/05/30 07:08:39;;;;;;;1999.90;999.90;;;14.10;99.90;;;;;;5077064;28;20418;-81
2021/05/30 07:11:14;;;;;;;1999.90;999.90;;;14.10;99.90;;;;;;5075925;28;20480;-81
2021/05/30 07:14:07;;;;;;;1999.90;999.90;;;14.10;99.90;;;;;;5075304;28;20414;-80
2021/05/30 07:16:56;;;;;;;1999.90;999.90;;;14.10;99.90;;;;;;5072085;28;20502;-81
2021/05/30 07:19:55;;;;;;;1999.90;999.90;;;14.20;99.90;;;;;;5060088;28;20461;-80
2021/05/30 07:22:29;;;;;;;1999.90;999.90;;;14.30;99.90;;;;;;5063999;28;20410;-81
2021/05/30 07:25:03;;;;;;;1999.90;999.90;;;14.30;99.90;;;;;;5074814;28;20474;-81
2021/05/30 07:28:07;;;;;;;1999.90;999.90;;;14.30;99.90;;;;;;5075908;28;20497;-81
2021/05/30 07:33:59;;;;;;;1999.90;999.90;;;14.20;99.90;;;;;;5069649;28;20409;-83
2021/05/30 07:40:49;;;;;;;1999.90;999.90;;;14.50;99.90;;;;;;5051133;28;20459;-83
2021/05/30 07:44:10;;;;;;;;;;;;;;;;;;;;;
2021/05/30 07:47:37;;;;;;;1999.90;999.90;;;14.70;99.90;;;;;;4946533;28;20408;-81
2021/05/30 07:51:05;;;;;;;1999.90;999.90;;;14.70;99.90;;;;;;5075914;28;20911;-81
2021/05/30 07:55:08;;;;;;;1999.90;999.90;;;14.80;99.90;;;;;;5074117;28;20441;-81
2021/05/30 08:05:13;;;;;;;;;;;;;;;;;;;;;
2021/05/30 08:12:20;;;;;;;;;;;;;;;;;;;;;
2021/05/30 09:06:53;;;;;;;1999.90;999.90;;;16.60;91.40;;;;;;4923779;28;20402;-81
2021/05/30 09:10:24;;;;;;;;;;;;;;;;;;;;;
2021/05/30 09:23:35;;;;;;;;;;;;;;;;;;;;;
2021/05/30 09:27:02;;;;;;;;;;;;;;;;;;;;;
2021/05/30 09:30:22;;;;;;;1999.90;999.90;;;17.50;71.00;;;;;;5038296;28;20497;-82
2021/05/30 09:41:11;;;;;;;1999.90;999.90;;;17.90;63.00;;;;;;5037291;28;20512;-81
2021/05/30 09:50:39;;;;;;;1999.90;999.90;;;18.40;46.10;;;;;;5037357;28;20406;-81
2021/05/30 09:54:05;;;;;;;1999.90;999.90;;;18.70;37.90;;;;;;5038393;28;20422;-81
2021/05/30 09:57:19;;;;;;;1999.90;999.90;;;18.80;32.50;;;;;;5007790;28;20428;-81
2021/05/30 10:10:43;;;;;;;1999.90;999.90;;;19.40;10.60;;;;;;4990839;28;20438;-81
2021/05/30 10:13:19;;;;;;;1999.90;999.90;;;19.70;11.80;;;;;;5038017;28;20442;-81
2021/05/30 10:16:36;;;;;;;1999.90;999.90;;;20.00;10.00;;;;;;5035525;28;20412;-81
2021/05/30 10:22:10;;;;;;;1999.90;999.90;;;20.20;9.40;;;;;;5120686;22;20474;-83
2021/05/30 10:24:55;;;;;;;1999.90;999.90;;;20.40;4.80;;;;;;5078117;28;20445;-82
2021/05/30 10:27:50;;;;;;;1999.90;999.90;;;20.50;2.40;;;;;;5065019;28;20422;-82
2021/05/30 10:31:02;;;;;;;1999.90;999.90;;;20.60;5.80;;;;;;5039051;28;20419;-83
2021/05/30 10:36:36;;;;;;;1999.90;999.90;;;21.00;7.10;;;;;;5058695;28;20449;-82
2021/05/30 10:39:55;;;;;;;1999.90;999.90;;;21.30;5.00;;;;;;5049675;23;20493;-83
2021/05/30 10:42:31;;;;;;;1999.90;999.90;;;21.60;3.00;;;;;;4978818;28;20827;-82
2021/05/30 10:45:14;;;;;;;1999.90;999.90;;;21.90;1.00;;;;;;5017219;28;20407;-83
2021/05/30 10:47:47;;;;;;;1999.90;999.90;;;22.30;1.00;;;;;;5017689;28;20400;-82
2021/05/30 10:50:24;;;;;;;1999.90;999.90;;;22.60;1.00;;;;;;5017052;28;20511;-82
2021/05/30 10:52:50;;;;;;;1999.90;999.90;;;23.00;1.00;;;;;;5018537;28;20386;-80
2021/05/30 10:55:30;;;;;;;1999.90;999.90;;;22.30;1.00;;;;;;5033720;28;20467;-83
2021/05/30 10:57:57;;;;;;;1999.90;999.90;;;22.10;1.00;;;;;;5033133;28;20460;-81
2021/05/30 11:00:23;;;;;;;1999.90;999.90;;;22.10;1.00;;;;;;5018570;28;20405;-82
2021/05/30 11:03:07;;;;;;;1999.90;999.90;;;22.40;1.00;;;;;;5018055;28;20462;-82
2021/05/30 11:05:47;;;;;;;1999.90;999.90;;;22.70;1.00;;;;;;5017515;28;20232;-82
2021/05/30 11:08:31;;;;;;;1999.90;999.90;;;22.80;1.00;;;;;;5018088;28;20428;-81
2021/05/30 11:11:24;;;;;;;1999.90;999.90;;;23.10;1.00;;;;;;5017739;28;20490;-79
2021/05/30 11:13:54;;;;;;;1999.90;999.90;;;23.20;1.00;;;;;;5018326;28;20397;-81
2021/05/30 11:16:25;;;;;;;1999.90;999.90;;;23.40;1.00;;;;;;5018973;28;20737;-81
2021/05/30 11:19:05;;;;;;;1999.90;999.90;;;23.80;1.00;;;;;;5033054;28;20448;-81
2021/05/30 11:21:43;;;;;;;1999.90;999.90;;;24.10;1.00;;;;;;5033052;28;20405;-81
2021/05/30 11:24:18;;;;;;;1999.90;999.90;;;23.80;1.00;;;;;;5018146;28;20381;-81
2021/05/30 11:27:05;;;;;;;1999.90;999.90;;;23.50;1.00;;;;;;5017856;28;20868;-81
2021/05/30 11:29:31;;;;;;;1999.90;999.90;;;23.50;1.00;;;;;;5017646;28;20425;-81
2021/05/30 11:32:02;;;;;;;1999.90;999.90;;;23.50;1.00;;;;;;5017441;28;20397;-81
2021/05/30 11:34:29;;;;;;;1999.90;999.90;;;23.80;1.00;;;;;;5017282;28;20440;-81
2021/05/30 11:37:07;;;;;;;1999.90;999.90;;;24.10;1.00;;;;;;5032929;28;20469;-82
2021/05/30 11:39:38;;;;;;;1999.90;999.90;;;24.00;1.00;;;;;;5017338;28;20459;-82
2021/05/30 11:42:04;;;;;;;1999.90;999.90;;;23.70;1.00;;;;;;5032930;28;20428;-82
2021/05/30 11:44:31;;;;;;;1999.90;999.90;;;22.90;1.00;;;;;;5017041;28;20397;-81
2021/05/30 11:47:08;;;;;;;1999.90;999.90;;;22.50;1.00;;;;;;5017509;28;20405;-81
2021/05/30 11:49:35;;;;;;;1999.90;999.90;;;22.20;1.00;;;;;;5017759;28;20455;-81
2021/05/30 11:52:07;;;;;;;1999.90;999.90;;;22.30;1.00;;;;;;5017229;28;20435;-82
2021/05/30 11:54:42;;;;;;;1999.90;999.90;;;22.50;1.00;;;;;;5016758;28;20925;-81
2021/05/30 11:57:09;;;;;;;1999.90;999.90;;;22.70;1.00;;;;;;5015607;28;20401;-81
2021/05/30 11:59:39;;;;;;;1999.90;999.90;;;23.10;1.00;;;;;;5032053;28;20484;-81
2021/05/30 12:02:53;;;;;;;1999.90;999.90;;;23.40;1.00;;;;;;5148708;22;20604;-80
2021/05/30 12:05:19;;;;;;;1999.90;999.90;;;23.80;1.00;;;;;;5007793;28;20788;-83
2021/05/30 12:07:58;;;;;;;;;;;;;;;;;;;;;
2021/05/30 12:10:27;;;;;;;1999.90;999.90;;;24.00;1.00;;;;;;5038730;28;20467;-82
2021/05/30 12:13:47;;;;;;;1999.90;999.90;;;24.30;1.00;;;;;;5020495;28;20404;-82
2021/05/30 12:16:20;;;;;;;1999.90;999.90;;;24.30;1.00;;;;;;5035775;28;20431;-82
2021/05/30 12:19:08;;;;;;;1999.90;999.90;;;24.60;1.00;;;;;;5038492;28;20451;-82
2021/05/30 12:21:46;;;;;;;1999.90;999.90;;;24.70;1.00;;;;;;5037784;28;20384;-82
2021/05/30 12:24:16;;;;;;;1999.90;999.90;;;24.60;1.00;;;;;;5038368;28;20446;-82
2021/05/30 12:26:44;;;;;;;1999.90;999.90;;;24.40;1.00;;;;;;5038171;28;20400;-82
2021/05/30 12:29:11;;;;;;;1999.90;999.90;;;24.30;1.00;;;;;;5038259;28;20988;-82
2021/05/30 12:31:37;;;;;;;1999.90;999.90;;;24.30;1.00;;;;;;5038078;28;20415;-82
2021/05/30 12:34:08;;;;;;;1999.90;999.90;;;24.40;1.00;;;;;;5020007;28;20412;-82
2021/05/30 12:36:44;;;;;;;1999.90;999.90;;;24.50;1.00;;;;;;5038256;28;20407;-82
2021/05/30 12:39:26;;;;;;;1999.90;999.90;;;24.70;1.00;;;;;;5038201;28;20443;-82
2021/05/30 12:42:06;;;;;;;1999.90;999.90;;;25.00;1.00;;;;;;5038745;28;20392;-82
2021/05/30 12:44:44;;;;;;;1999.90;999.90;;;25.20;1.00;;;;;;5038452;28;20423;-82
2021/05/30 12:47:16;;;;;;;1999.90;999.90;;;25.30;1.00;;;;;;5021315;28;20799;-82
2021/05/30 12:50:02;;;;;;;1999.90;999.90;;;25.40;1.00;;;;;;5037784;28;20489;-82
2021/05/30 12:52:46;;;;;;;1999.90;999.90;;;25.30;1.00;;;;;;5020474;28;20432;-82
2021/05/30 12:55:13;;;;;;;1999.90;999.90;;;25.20;1.00;;;;;;5038428;28;20406;-80
2021/05/30 12:57:43;;;;;;;1999.90;999.90;;;25.70;1.00;;;;;;5037491;28;20420;-80
2021/05/30 13:00:32;;;;;;;1999.90;999.90;;;25.80;1.00;;;;;;5037698;28;20438;-82
2021/05/30 13:03:06;;;;;;;1999.90;999.90;;;25.80;1.00;;;;;;5038303;28;20498;-82
2021/05/30 13:05:42;;;;;;;1999.90;999.90;;;26.00;1.00;;;;;;5041913;28;20740;-82
2021/05/30 13:08:25;;;;;;;1999.90;999.90;;;26.10;1.00;;;;;;5040919;28;20764;-80
2021/05/30 13:11:00;;;;;;;1999.90;999.90;;;25.70;1.00;;;;;;5022782;28;20981;-80
2021/05/30 13:13:39;;;;;;;1999.90;999.90;;;25.30;1.00;;;;;;5040925;28;20403;-80
2021/05/30 13:16:05;;;;;;;1999.90;999.90;;;25.20;1.00;;;;;;5023122;28;20441;-80
2021/05/30 13:18:47;;;;;;;1999.90;999.90;;;25.30;1.00;;;;;;5022945;28;20988;-82
2021/05/30 13:21:22;;;;;;;1999.90;999.90;;;25.50;1.00;;;;;;5022958;28;20413;-82
2021/05/30 13:24:10;;;;;;;1999.90;999.90;;;25.40;1.00;;;;;;5041291;28;20406;-82
2021/05/30 13:26:45;;;;;;;1999.90;999.90;;;25.20;1.00;;;;;;5041237;28;20517;-80
2021/05/30 13:29:18;;;;;;;1999.90;999.90;;;24.70;1.00;;;;;;5040935;28;20465;-80
2021/05/30 13:31:47;;;;;;;1999.90;999.90;;;24.30;1.00;;;;;;5023104;28;20780;-82
2021/05/30 13:34:13;;;;;;;1999.90;999.90;;;24.00;1.00;;;;;;5040340;28;20408;-82
2021/05/30 13:36:38;;;;;;;1999.90;999.90;;;23.50;1.00;;;;;;5041540;28;20493;-82
2021/05/30 13:39:09;;;;;;;1999.90;999.90;;;23.40;1.00;;;;;;5041103;28;20986;-82
2021/05/30 13:41:34;;;;;;;1999.90;999.90;;;23.30;1.00;;;;;;5041847;28;20200;-82
2021/05/30 13:44:01;;;;;;;1999.90;999.90;;;23.20;1.00;;;;;;5041716;28;20400;-82
2021/05/30 13:46:27;;;;;;;1999.90;999.90;;;23.20;1.00;;;;;;5041878;28;20173;-82
2021/05/30 13:48:57;;;;;;;1999.90;999.90;;;23.20;1.00;;;;;;5041512;28;20815;-82
2021/05/30 13:51:23;;;;;;;1999.90;999.90;;;23.10;1.00;;;;;;5023943;28;20841;-82
2021/05/30 13:53:56;;;;;;;1999.90;999.90;;;23.20;1.00;;;;;;5041833;28;20404;-82
2021/05/30 13:56:23;;;;;;;1999.90;999.90;;;23.50;1.00;;;;;;5041089;28;20768;-82
2021/05/30 13:58:49;;;;;;;1999.90;999.90;;;23.60;1.00;;;;;;5023876;28;20451;-82
2021/05/30 14:01:17;;;;;;;1999.90;999.90;;;23.90;1.00;;;;;;5041479;28;20404;-82
2021/05/30 14:03:44;;;;;;;1999.90;999.90;;;24.00;1.00;;;;;;5041039;28;20424;-82
2021/05/30 14:06:13;;;;;;;1999.90;999.90;;;23.90;1.00;;;;;;5040952;28;20412;-82
2021/05/30 14:08:39;;;;;;;1999.90;999.90;;;23.90;1.00;;;;;;5041184;28;20514;-82
2021/05/30 14:11:05;;;;;;;1999.90;999.90;;;24.30;1.00;;;;;;5040772;28;20522;-82
2021/05/30 14:13:30;;;;;;;1999.90;999.90;;;24.50;1.00;;;;;;5040762;28;20173;-82
2021/05/30 14:15:56;;;;;;;1999.90;999.90;;;24.80;1.00;;;;;;5040069;28;20173;-82
2021/05/30 14:18:22;;;;;;;1999.90;999.90;;;25.00;1.00;;;;;;5022846;28;20235;-82
2021/05/30 14:20:51;;;;;;;1999.90;999.90;;;24.90;1.00;;;;;;5041013;28;20167;-82
2021/05/30 14:23:16;;;;;;;1999.90;999.90;;;24.80;1.00;;;;;;5041097;28;20191;-82
2021/05/30 14:25:42;;;;;;;1999.90;999.90;;;24.60;1.00;;;;;;5022929;28;20967;-82
2021/05/30 14:28:15;;;;;;;1999.90;999.90;;;24.60;1.00;;;;;;5040540;28;20196;-82
2021/05/30 14:30:41;;;;;;;1999.90;999.90;;;24.50;1.00;;;;;;5023420;28;20199;-82
2021/05/30 14:33:07;;;;;;;1999.90;999.90;;;24.30;1.00;;;;;;5040581;28;20404;-82
2021/05/30 14:35:33;;;;;;;1999.90;999.90;;;24.20;1.00;;;;;;5041120;28;20633;-82
2021/05/30 14:37:58;;;;;;;1999.90;999.90;;;24.30;1.00;;;;;;5040505;28;20420;-82
2021/05/30 14:40:24;;;;;;;1999.90;999.90;;;24.70;1.00;;;;;;5040644;28;20185;-81
2021/05/30 14:42:51;;;;;;;1999.90;999.90;;;25.00;1.00;;;;;;5040918;28;20669;-82
2021/05/30 14:45:18;;;;;;;1999.90;999.90;;;25.10;1.00;;;;;;5039805;28;20249;-82
2021/05/30 14:47:47;;;;;;;1999.90;999.90;;;25.10;1.00;;;;;;5040256;28;20401;-82
2021/05/30 14:50:13;;;;;;;1999.90;999.90;;;25.10;1.00;;;;;;5022349;28;20408;-82
2021/05/30 14:52:41;;;;;;;1999.90;999.90;;;25.20;1.00;;;;;;5022787;28;20444;-82
2021/05/30 14:55:07;;;;;;;1999.90;999.90;;;25.30;1.00;;;;;;5022758;28;20401;-82
2021/05/30 14:57:37;;;;;;;1999.90;999.90;;;25.40;1.00;;;;;;5022621;28;20439;-82
2021/05/30 15:00:04;;;;;;;1999.90;999.90;;;25.70;1.00;;;;;;5040444;28;20554;-82
2021/05/30 15:02:30;;;;;;;1999.90;999.90;;;25.80;1.00;;;;;;5022427;28;20918;-82
2021/05/30 15:04:56;;;;;;;1999.90;999.90;;;26.10;1.00;;;;;;5039935;28;20423;-82
2021/05/30 15:07:21;;;;;;;1999.90;999.90;;;26.60;1.00;;;;;;5040184;28;20165;-82
2021/05/30 15:09:47;;;;;;;1999.90;999.90;;;26.50;1.00;;;;;;5038695;28;20185;-82
2021/05/30 15:12:13;;;;;;;1999.90;999.90;;;26.40;1.00;;;;;;5038802;28;20167;-82
2021/05/30 15:14:39;;;;;;;1999.90;999.90;;;25.80;1.00;;;;;;5038569;28;20170;-82
2021/05/30 15:17:04;;;;;;;1999.90;999.90;;;25.50;1.00;;;;;;5039302;28;20222;-82
2021/05/30 15:19:30;;;;;;;1999.90;999.90;;;25.20;1.00;;;;;;5038639;28;20687;-82
2021/05/30 15:21:57;;;;;;;1999.90;999.90;;;25.10;1.00;;;;;;5022153;28;20170;-80
2021/05/30 15:24:23;;;;;;;1999.90;999.90;;;25.50;1.00;;;;;;5021460;28;20167;-82
2021/05/30 15:26:48;;;;;;;1999.90;999.90;;;26.10;1.00;;;;;;5039064;28;20483;-82
2021/05/30 15:29:14;;;;;;;1999.90;999.90;;;26.40;1.00;;;;;;5040405;28;20188;-82
2021/05/30 15:31:48;;;;;;;1999.90;999.90;;;27.00;1.00;;;;;;5039338;28;20172;-82
2021/05/30 15:34:15;;;;;;;1999.90;999.90;;;27.50;1.00;;;;;;5039302;28;20156;-82
2021/05/30 15:36:41;;;;;;;1999.90;999.90;;;27.30;1.00;;;;;;5039735;28;20930;-82
2021/05/30 15:39:08;;;;;;;1999.90;999.90;;;27.30;1.00;;;;;;5021096;28;20452;-82
2021/05/30 15:41:34;;;;;;;1999.90;999.90;;;27.20;1.00;;;;;;5039082;28;20255;-82
2021/05/30 15:43:59;;;;;;;1999.90;999.90;;;27.10;1.00;;;;;;5039710;28;20769;-82
2021/05/30 15:46:25;;;;;;;1999.90;999.90;;;26.80;1.00;;;;;;5021098;28;20298;-82
2021/05/30 15:48:51;;;;;;;1999.90;999.90;;;26.00;1.00;;;;;;5020974;28;20200;-82
2021/05/30 15:51:26;;;;;;;1999.90;999.90;;;25.50;1.00;;;;;;5039646;28;20172;-82
2021/05/30 15:53:57;;;;;;;1999.90;999.90;;;25.40;1.00;;;;;;5039727;28;20154;-82
2021/05/30 15:56:24;;;;;;;1999.90;999.90;;;25.10;1.00;;;;;;5021405;28;20419;-82
2021/05/30 15:58:50;;;;;;;1999.90;999.90;;;25.00;1.00;;;;;;5038945;28;20462;-82
2021/05/30 16:01:16;;;;;;;1999.90;999.90;;;25.10;1.00;;;;;;5021748;28;20414;-83
2021/05/30 16:03:42;;;;;;;1999.90;999.90;;;25.10;1.00;;;;;;5039632;28;20418;-82
2021/05/30 16:06:07;;;;;;;1999.90;999.90;;;25.00;1.00;;;;;;5021342;28;20266;-82
2021/05/30 16:08:33;;;;;;;1999.90;999.90;;;24.80;1.00;;;;;;5038987;28;20200;-81
2021/05/30 16:10:59;;;;;;;1999.90;999.90;;;24.70;1.00;;;;;;5038926;28;20172;-82
2021/05/30 16:13:30;;;;;;;1999.90;999.90;;;24.60;1.00;;;;;;5039559;28;20249;-82
2021/05/30 16:15:55;;;;;;;1999.90;999.90;;;24.70;1.00;;;;;;5021625;28;20541;-82
2021/05/30 16:18:21;;;;;;;1999.90;999.90;;;24.60;1.00;;;;;;5021001;28;20464;-82
2021/05/30 16:20:47;;;;;;;1999.90;999.90;;;24.50;1.00;;;;;;5021270;28;20170;-82
2021/05/30 16:23:13;;;;;;;1999.90;999.90;;;24.20;1.00;;;;;;5039413;28;20198;-82
2021/05/30 16:25:44;;;;;;;1999.90;999.90;;;24.40;1.00;;;;;;5021050;28;20604;-82
2021/05/30 16:28:10;;;;;;;1999.90;999.90;;;24.40;1.00;;;;;;5038986;28;20453;-82
2021/05/30 16:30:39;;;;;;;1999.90;999.90;;;24.30;1.00;;;;;;5039188;28;20973;-82
2021/05/30 16:33:05;;;;;;;1999.90;999.90;;;24.40;1.00;;;;;;5021797;28;20230;-82
2021/05/30 16:35:31;;;;;;;1999.90;999.90;;;24.10;1.00;;;;;;5039358;28;20404;-82
2021/05/30 16:38:02;;;;;;;1999.90;999.90;;;24.00;1.00;;;;;;5041625;28;20764;-82
2021/05/30 16:40:30;;;;;;;1999.90;999.90;;;23.80;1.00;;;;;;5026413;28;20388;-83
2021/05/30 16:42:59;;;;;;;1999.90;999.90;;;23.70;1.00;;;;;;5043423;28;20423;-83
2021/05/30 16:45:28;;;;;;;1999.90;999.90;;;23.70;1.00;;;;;;5025604;28;20409;-83
2021/05/30 16:48:06;;;;;;;1999.90;999.90;;;23.70;1.00;;;;;;5042850;28;20412;-83
2021/05/30 16:50:35;;;;;;;1999.90;999.90;;;23.70;1.00;;;;;;5043587;28;20384;-83
2021/05/30 16:53:03;;;;;;;1999.90;999.90;;;24.10;1.00;;;;;;5042898;28;20396;-82
2021/05/30 16:55:29;;;;;;;1999.90;999.90;;;24.90;1.00;;;;;;5042027;28;20392;-83
2021/05/30 16:57:55;;;;;;;1999.90;999.90;;;25.00;1.00;;;;;;5042264;28;20441;-82
2021/05/30 17:00:21;;;;;;;1999.90;999.90;;;24.80;1.00;;;;;;5042252;28;20162;-82
2021/05/30 17:03:30;;;;;;;1999.90;999.90;;;25.70;1.00;;;;;;5041883;28;20180;-82
2021/05/30 17:05:56;;;;;;;1999.90;999.90;;;26.90;1.00;;;;;;4997873;28;20418;-82
2021/05/30 17:08:22;;;;;;;1999.90;999.90;;;27.80;1.00;;;;;;5023121;28;20450;-83
2021/05/30 17:10:48;;;;;;;1999.90;999.90;;;28.00;1.00;;;;;;5024236;28;20229;-83
2021/05/30 17:13:17;;;;;;;1999.90;999.90;;;27.90;1.00;;;;;;5024758;28;20183;-84
2021/05/30 17:15:55;;;;;;;1999.90;999.90;;;27.90;1.00;;;;;;5043356;28;20240;-84
2021/05/30 17:18:22;;;;;;;1999.90;999.90;;;27.70;1.00;;;;;;5042701;28;20479;-84
2021/05/30 17:20:52;;;;;;;1999.90;999.90;;;26.70;1.00;;;;;;5024897;28;20938;-84
2021/05/30 17:23:18;;;;;;;1999.90;999.90;;;26.80;1.00;;;;;;5042468;28;20404;-84
2021/05/30 17:25:50;;;;;;;1999.90;999.90;;;26.80;1.00;;;;;;5024549;28;20408;-84
2021/05/30 17:28:16;;;;;;;1999.90;999.90;;;26.60;1.00;;;;;;5025111;28;20440;-84
2021/05/30 17:30:43;;;;;;;1999.90;999.90;;;26.90;1.00;;;;;;5043656;28;20895;-84
2021/05/30 17:33:08;;;;;;;1999.90;999.90;;;26.70;1.00;;;;;;5025243;28;20407;-84
2021/05/30 17:35:34;;;;;;;1999.90;999.90;;;26.20;1.00;;;;;;5042682;28;20427;-84
2021/05/30 17:38:00;;;;;;;1999.90;999.90;;;25.80;1.00;;;;;;5024217;28;20595;-83
2021/05/30 17:40:26;;;;;;;1999.90;999.90;;;25.50;1.00;;;;;;5041604;28;20220;-83
2021/05/30 17:42:53;;;;;;;1999.90;999.90;;;25.10;1.00;;;;;;5042113;28;20483;-83
2021/05/30 17:45:19;;;;;;;1999.90;999.90;;;25.10;1.00;;;;;;5024738;28;20418;-83
2021/05/30 17:47:47;;;;;;;1999.90;999.90;;;25.00;1.00;;;;;;5041949;28;20411;-82
2021/05/30 17:50:12;;;;;;;1999.90;999.90;;;25.20;1.00;;;;;;5022825;28;20180;-82
2021/05/30 17:52:38;;;;;;;1999.90;999.90;;;25.20;1.00;;;;;;5041077;28;20776;-82
2021/05/30 17:55:05;;;;;;;1999.90;999.90;;;25.00;1.00;;;;;;5041341;28;20165;-83
2021/05/30 17:57:31;;;;;;;1999.90;999.90;;;24.60;1.00;;;;;;5023358;28;20171;-82
2021/05/30 17:59:57;;;;;;;1999.90;999.90;;;24.50;1.00;;;;;;5040966;28;20799;-82
2021/05/30 18:02:23;;;;;;;1999.90;999.90;;;24.10;1.00;;;;;;5069096;22;20487;-86
2021/05/30 18:04:49;;;;;;;1999.90;999.90;;;23.50;1.00;;;;;;5074616;28;20225;-86
2021/05/30 18:07:20;;;;;;;1999.90;999.90;;;23.40;1.00;;;;;;5076264;28;20640;-86
2021/05/30 18:09:48;;;;;;;1999.90;999.90;;;23.40;1.00;;;;;;5074286;28;20286;-86
2021/05/30 18:12:15;;;;;;;1999.90;999.90;;;23.40;1.00;;;;;;5074190;28;20410;-86
2021/05/30 18:14:41;;;;;;;1999.90;999.90;;;23.30;1.00;;;;;;5074248;28;20398;-86
2021/05/30 18:17:07;;;;;;;1999.90;999.90;;;23.20;1.00;;;;;;5075329;28;20474;-86
2021/05/30 18:19:33;;;;;;;1999.90;999.90;;;22.90;1.00;;;;;;5076099;28;20584;-86
2021/05/30 18:21:59;;;;;;;1999.90;999.90;;;22.60;1.00;;;;;;5077486;28;20735;-86
2021/05/30 18:24:25;;;;;;;1999.90;999.90;;;22.40;1.00;;;;;;5076754;28;20405;-86
2021/05/30 18:26:50;;;;;;;1999.90;999.90;;;22.60;1.00;;;;;;5078864;28;20672;-86
2021/05/30 18:29:16;;;;;;;1999.90;999.90;;;22.70;1.00;;;;;;5076040;28;20234;-86
2021/05/30 18:31:42;;;;;;;1999.90;999.90;;;22.50;1.00;;;;;;5076070;28;20175;-86
2021/05/30 18:34:08;;;;;;;1999.90;999.90;;;22.40;1.00;;;;;;5076387;28;20604;-86
2021/05/30 18:36:35;;;;;;;1999.90;999.90;;;22.50;1.00;;;;;;5074913;28;20460;-86
2021/05/30 18:39:03;;;;;;;1999.90;999.90;;;22.40;1.00;;;;;;5078196;28;20821;-85
2021/05/30 18:41:29;;;;;;;1999.90;999.90;;;22.30;1.00;;;;;;5075601;28;20414;-87
2021/05/30 18:43:55;;;;;;;1999.90;999.90;;;22.20;1.00;;;;;;5075443;28;20766;-86
2021/05/30 18:46:21;;;;;;;1999.90;999.90;;;22.00;1.00;;;;;;5075342;28;20190;-86
2021/05/30 18:48:47;;;;;;;1999.90;999.90;;;21.90;1.00;;;;;;5076417;28;20184;-85
2021/05/30 18:51:20;;;;;;;1999.90;999.90;;;21.90;1.00;;;;;;5076049;28;20410;-85
2021/05/30 18:53:50;;;;;;;1999.90;999.90;;;21.90;1.00;;;;;;5074278;28;20429;-85
2021/05/30 18:56:17;;;;;;;1999.90;999.90;;;21.70;1.00;;;;;;5074268;28;20424;-85
2021/05/30 18:58:43;;;;;;;1999.90;999.90;;;21.60;1.00;;;;;;5075252;28;20553;-85
2021/05/30 19:01:13;;;;;;;1999.90;999.90;;;21.60;1.00;;;;;;5073838;28;20413;-85
2021/05/30 19:03:40;;;;;;;1999.90;999.90;;;21.50;1.00;;;;;;5074369;28;20406;-85
2021/05/30 19:06:06;;;;;;;1999.90;999.90;;;21.40;1.00;;;;;;5073461;28;20402;-85
2021/05/30 19:08:34;;;;;;;1999.90;999.90;;;21.30;1.00;;;;;;5073090;28;20426;-85
2021/05/30 19:11:01;;;;;;;1999.90;999.90;;;21.20;1.00;;;;;;5074263;28;20914;-85
2021/05/30 19:13:26;;;;;;;1999.90;999.90;;;21.30;1.00;;;;;;5073272;28;20464;-85
2021/05/30 19:15:53;;;;;;;1999.90;999.90;;;21.20;1.00;;;;;;5074333;28;20892;-85
2021/05/30 19:18:19;;;;;;;1999.90;999.90;;;21.00;1.00;;;;;;5073216;28;20219;-85
2021/05/30 19:20:45;;;;;;;1999.90;999.90;;;21.00;1.00;;;;;;5074003;28;20902;-85